Time;durP1;ratioP1;P1;durP2;ratioP2;P2;SDS_P1;SDS_P2;PMS_P1;PMS_P2;Temp;Humidity;BMP_temperature;BMP_pressure;BME280_temperature;BME280_humidity;BME280_pressure;Samples;Min_cycle;Max_cycle;Signal;HPM_P1;HPM_P2
2022/07/16 00:02:03;;;;;;;4.47;2.33;;;;;;;10.63;68.47;99064.13;4138559;28;20088;-71
2022/07/16 00:04:03;;;;;;;3.42;1.75;;;;;;;10.52;68.69;99072.22;4138135;28;20030;-70
2022/07/16 00:06:04;;;;;;;4.32;2.00;;;;;;;10.47;68.24;99068.94;4137383;28;20030;-71
2022/07/16 00:08:04;;;;;;;5.63;2.45;;;;;;;10.43;69.19;99057.81;4138936;28;20026;-71
2022/07/16 00:10:05;;;;;;;3.50;2.15;;;;;;;10.43;68.51;99065.31;4137539;28;20490;-70
2022/07/16 00:12:06;;;;;;;3.38;2.15;;;;;;;10.40;68.84;99059.31;4138931;28;20030;-71
2022/07/16 00:14:06;;;;;;;3.83;2.20;;;;;;;10.48;68.80;99059.47;4136020;28;20161;-70
2022/07/16 00:16:08;;;;;;;4.57;2.45;;;;;;;10.55;67.68;99065.97;4137256;28;20459;-70
2022/07/16 00:20:27;;;;;;;5.88;2.65;;;;;;;10.69;67.89;99060.72;4137391;28;20064;-70
2022/07/16 00:22:27;;;;;;;3.03;2.33;;;;;;;10.75;67.03;99049.34;4137346;28;20441;-70
2022/07/16 00:24:27;;;;;;;5.28;2.20;;;;;;;10.74;68.33;99048.53;4137900;28;20405;-70
2022/07/16 00:26:28;;;;;;;5.60;3.03;;;;;;;10.53;69.20;99042.59;4137385;28;20382;-70
2022/07/16 00:28:28;;;;;;;4.93;2.40;;;;;;;10.41;69.05;99047.09;4131871;28;20181;-70
2022/07/16 00:30:29;;;;;;;5.72;2.33;;;;;;;10.37;68.80;99039.88;4138581;28;20329;-70
2022/07/16 00:32:30;;;;;;;3.50;2.45;;;;;;;10.26;69.35;99041.59;4138033;28;20045;-70
2022/07/16 00:34:30;;;;;;;6.15;2.50;;;;;;;10.14;69.66;99035.03;4137923;28;20077;-70
2022/07/16 00:36:30;;;;;;;3.83;2.13;;;;;;;10.04;70.44;99045.84;4135978;28;20479;-70
2022/07/16 00:38:31;;;;;;;4.38;2.70;;;;;;;9.98;70.52;99037.03;4138141;28;20506;-70
2022/07/16 00:40:32;;;;;;;5.68;2.55;;;;;;;9.95;70.24;99029.47;4137380;28;20831;-70
2022/07/16 00:42:32;;;;;;;3.90;2.80;;;;;;;9.98;69.27;99033.47;4137888;28;20054;-70
2022/07/16 00:44:32;;;;;;;4.30;2.50;;;;;;;9.92;70.80;99030.16;4138074;28;20045;-70
2022/07/16 00:46:34;;;;;;;7.45;2.65;;;;;;;9.85;70.88;99030.03;4136558;28;20467;-70
2022/07/16 00:48:34;;;;;;;5.35;2.70;;;;;;;9.74;71.64;99028.97;4138047;28;20438;-70
2022/07/16 00:50:36;;;;;;;3.40;2.25;;;;;;;9.60;73.25;99025.84;4136929;28;20411;-70
2022/07/16 00:52:36;;;;;;;3.93;2.23;;;;;;;9.56;72.96;99031.31;4137350;28;20045;-70
2022/07/16 00:54:37;;;;;;;3.63;2.25;;;;;;;9.42;74.12;99031.75;4138204;28;20280;-70
2022/07/16 00:56:37;;;;;;;6.28;3.38;;;;;;;9.35;74.20;99025.25;4136946;28;20077;-70
2022/07/16 00:58:40;;;;;;;3.58;2.45;;;;;;;9.32;73.79;99028.72;4138128;28;20052;-70
2022/07/16 01:00:40;;;;;;;5.40;2.80;;;;;;;9.32;74.05;99024.00;4137511;28;20080;-70
2022/07/16 01:02:40;;;;;;;5.18;2.40;;;;;;;9.24;74.33;99020.25;4138106;28;20034;-70
2022/07/16 01:04:41;;;;;;;3.33;2.20;;;;;;;9.21;74.06;99015.47;4137497;28;20065;-70
2022/07/16 01:06:41;;;;;;;4.93;2.45;;;;;;;9.16;75.21;99021.22;4136372;28;20050;-70
2022/07/16 01:08:45;;;;;;;4.47;2.60;;;;;;;9.12;75.64;99023.13;4137407;28;20057;-70
2022/07/16 01:10:45;;;;;;;4.35;2.25;;;;;;;9.13;74.69;99021.16;4136230;28;20233;-70
2022/07/16 01:12:46;;;;;;;5.10;2.40;;;;;;;9.12;75.08;99011.28;4137197;28;20085;-70
2022/07/16 01:14:46;;;;;;;3.13;2.30;;;;;;;9.11;75.51;99021.53;4136435;28;20444;-70
2022/07/16 01:16:47;;;;;;;3.65;2.10;;;;;;;9.09;74.97;99023.81;4136407;28;20133;-70
2022/07/16 01:18:47;;;;;;;5.25;2.03;;;;;;;9.01;75.93;99011.78;4136169;28;20046;-70
2022/07/16 01:20:48;;;;;;;4.72;2.05;;;;;;;9.01;75.40;99014.53;4137818;28;20037;-70
2022/07/16 01:22:52;;;;;;;4.85;2.53;;;;;;;8.93;75.69;99015.50;4138082;28;20081;-70
2022/07/16 01:24:53;;;;;;;6.05;2.30;;;;;;;8.88;76.14;99012.22;4135922;28;20049;-70
2022/07/16 01:26:53;;;;;;;3.75;2.55;;;;;;;8.86;75.76;99015.34;4136007;28;20089;-70
2022/07/16 01:28:53;;;;;;;7.00;3.03;;;;;;;8.86;75.38;99006.25;4134994;28;20486;-70
2022/07/16 01:30:54;;;;;;;3.25;2.40;;;;;;;8.84;75.82;99008.56;4136937;28;20132;-70
2022/07/16 01:32:54;;;;;;;5.68;2.67;;;;;;;8.81;76.08;99012.81;4137121;28;20046;-70
2022/07/16 01:34:54;;;;;;;6.05;2.30;;;;;;;8.86;75.16;99004.31;4137870;28;20565;-70
2022/07/16 01:36:57;;;;;;;4.88;2.60;;;;;;;8.82;76.80;99016.38;4136781;28;20449;-70
2022/07/16 01:38:58;;;;;;;;;;;;;;;8.83;76.24;99009.72;4135871;28;20137;-70
2022/07/16 01:40:58;;;;;;;4.03;2.40;;;;;;;8.71;77.71;99016.09;4135941;28;20381;-70
2022/07/16 01:42:58;;;;;;;5.30;2.83;;;;;;;8.69;76.66;99004.63;4137674;28;20108;-70
2022/07/16 01:45:00;;;;;;;5.93;2.25;;;;;;;8.61;77.78;99008.34;4136764;28;20045;-70
2022/07/16 01:47:02;;;;;;;5.20;2.60;;;;;;;8.54;77.65;99006.19;4134373;28;20057;-70
2022/07/16 01:49:02;;;;;;;5.88;2.55;;;;;;;8.57;77.17;99010.19;4136035;28;20086;-70
2022/07/16 01:51:02;;;;;;;7.60;4.20;;;;;;;8.46;78.85;99003.59;4137566;28;20041;-70
2022/07/16 01:53:03;;;;;;;4.53;2.42;;;;;;;8.41;77.92;98991.63;4134864;28;20117;-70
2022/07/16 01:55:04;;;;;;;3.28;2.30;;;;;;;8.38;78.05;98992.34;4136594;28;20042;-70
2022/07/16 01:57:04;;;;;;;3.22;2.10;;;;;;;8.39;77.40;98991.19;4136572;28;20591;-70
2022/07/16 01:59:05;;;;;;;6.20;2.55;;;;;;;8.39;77.40;98995.91;4136107;28;20077;-70
2022/07/16 02:01:06;;;;;;;5.30;2.30;;;;;;;8.35;77.00;98995.78;4136275;28;20034;-70
2022/07/16 02:03:07;;;;;;;4.97;2.60;;;;;;;8.33;77.65;99000.84;4137125;28;20045;-70
2022/07/16 02:05:07;;;;;;;6.38;2.70;;;;;;;8.28;78.59;98990.06;4136529;28;20394;-70
2022/07/16 02:07:08;;;;;;;4.28;2.45;;;;;;;8.30;77.72;98998.78;4135263;28;20294;-70
2022/07/16 02:09:08;;;;;;;3.35;2.30;;;;;;;8.31;78.30;98985.81;4136428;28;20065;-70
2022/07/16 02:11:08;;;;;;;3.53;2.58;;;;;;;8.27;78.83;98993.16;4136579;28;20042;-70
2022/07/16 02:13:09;;;;;;;3.88;1.92;;;;;;;8.25;78.57;98989.94;4135190;28;20161;-70
2022/07/16 02:15:10;;;;;;;4.43;2.42;;;;;;;8.17;78.87;98989.75;4136337;28;20042;-70
2022/07/16 02:17:10;;;;;;;5.30;2.80;;;;;;;8.14;79.23;98990.44;4135946;28;20061;-70
2022/07/16 02:19:11;;;;;;;2.92;2.15;;;;;;;8.08;79.39;98988.28;4135713;28;20048;-70
2022/07/16 02:21:11;;;;;;;4.28;2.53;;;;;;;8.01;79.74;98991.63;4135129;28;20077;-70
2022/07/16 02:23:12;;;;;;;2.83;2.20;;;;;;;7.98;79.88;98989.56;4136976;28;20052;-70
2022/07/16 02:25:12;;;;;;;3.15;2.33;;;;;;;7.94;80.38;98985.91;4135582;28;20116;-70
2022/07/16 02:27:13;;;;;;;3.38;2.17;;;;;;;7.89;80.73;98994.41;4135582;28;20046;-70
2022/07/16 02:29:13;;;;;;;4.30;2.75;;;;;;;7.88;81.00;98995.56;4135966;28;20092;-70
2022/07/16 02:31:13;;;;;;;3.30;2.35;;;;;;;7.88;80.20;98990.06;4134977;28;20440;-70
2022/07/16 02:33:16;;;;;;;4.63;2.08;;;;;;;7.86;80.54;98998.69;4136263;28;20042;-70
2022/07/16 02:35:17;;;;;;;4.70;2.60;;;;;;;7.87;79.84;98992.03;4134531;28;20208;-70
2022/07/16 02:37:17;;;;;;;6.20;2.20;;;;;;;7.85;80.45;98983.28;4136362;28;20510;-70
2022/07/16 02:39:18;;;;;;;4.13;2.05;;;;;;;7.85;79.65;98982.47;4134428;28;20445;-70
2022/07/16 02:41:18;;;;;;;3.97;2.22;;;;;;;7.83;79.99;98984.78;4136535;28;20046;-70
2022/07/16 02:43:18;;;;;;;3.47;2.13;;;;;;;7.77;80.80;98981.47;4137168;28;20072;-70
2022/07/16 02:45:19;;;;;;;7.53;2.47;;;;;;;7.79;79.83;98986.66;4134065;28;20068;-70
2022/07/16 02:47:19;;;;;;;6.60;2.80;;;;;;;7.78;80.15;98977.56;4133640;28;20069;-70
2022/07/16 02:49:19;;;;;;;5.80;2.53;;;;;;;7.78;80.36;98974.03;4135274;28;20052;-69
2022/07/16 02:51:20;;;;;;;4.45;2.35;;;;;;;7.76;80.04;98993.63;4136147;28;20053;-70
2022/07/16 02:53:20;;;;;;;5.50;2.10;;;;;;;7.73;80.68;98990.78;4135978;28;20052;-69
2022/07/16 02:55:21;;;;;;;4.97;2.70;;;;;;;7.69;80.49;98989.84;4135169;28;20042;-70
2022/07/16 02:57:21;;;;;;;8.38;3.17;;;;;;;7.63;81.18;98985.75;4135994;28;20362;-69
2022/07/16 02:59:21;;;;;;;3.67;2.53;;;;;;;7.60;82.06;98993.53;4134673;28;20042;-70
2022/07/16 03:01:22;;;;;;;4.47;2.25;;;;;;;7.59;81.23;98993.88;4136504;28;20045;-69
2022/07/16 03:03:22;;;;;;;2.80;2.05;;;;;;;7.55;81.69;98990.22;4136643;28;20042;-70
2022/07/16 03:05:23;;;;;;;3.13;2.00;;;;;;;7.52;82.65;98986.19;4136636;28;20057;-69
2022/07/16 03:07:24;;;;;;;4.80;2.30;;;;;;;7.51;81.81;98984.59;4134572;28;20042;-69
2022/07/16 03:09:24;;;;;;;2.55;1.88;;;;;;;7.55;81.12;98991.03;4133938;28;20053;-70
2022/07/16 03:11:24;;;;;;;3.03;2.20;;;;;;;7.64;80.75;98987.34;4138885;28;20136;-70
2022/07/16 03:13:25;;;;;;;5.55;2.38;;;;;;;7.68;80.90;98994.56;4139111;28;20124;-69
2022/07/16 03:15:26;;;;;;;4.93;2.55;;;;;;;7.69;81.50;98987.91;4139200;28;20042;-69
2022/07/16 03:17:26;;;;;;;5.15;2.28;;;;;;;7.72;80.51;98981.72;4138642;28;20165;-69
2022/07/16 03:19:26;;;;;;;4.50;2.42;;;;;;;7.82;79.88;98989.50;4138182;28;20390;-69
2022/07/16 03:21:27;;;;;;;7.25;2.60;;;;;;;7.82;79.61;98983.19;4139405;28;20125;-70
2022/07/16 03:23:27;;;;;;;4.72;2.33;;;;;;;7.82;80.54;98983.19;4139752;28;20322;-69
2022/07/16 03:25:28;;;;;;;6.80;2.20;;;;;;;7.83;79.89;98984.78;4138515;28;20614;-69
2022/07/16 03:27:28;;;;;;;4.40;2.75;;;;;;;7.80;82.33;98983.53;4138930;28;20038;-69
2022/07/16 03:29:28;;;;;;;7.07;2.45;;;;;;;7.77;81.82;98991.66;4138085;28;20042;-69
2022/07/16 03:31:29;;;;;;;3.53;2.30;;;;;;;7.71;82.96;98993.09;4138897;28;20057;-69
2022/07/16 03:33:29;;;;;;;5.93;2.67;;;;;;;7.66;81.85;98996.84;4137840;28;20088;-69
2022/07/16 03:35:30;;;;;;;4.82;2.63;;;;;;;7.62;82.00;98984.16;4138611;28;20054;-69
2022/07/16 03:37:30;;;;;;;4.10;2.10;;;;;;;7.60;82.19;98984.47;4138554;28;20068;-69
2022/07/16 03:39:30;;;;;;;5.20;2.40;;;;;;;7.67;80.49;98994.91;4135769;28;20054;-69
2022/07/16 03:41:33;;;;;;;4.80;2.30;;;;;;;7.67;81.32;98981.94;4138401;28;20052;-69
2022/07/16 03:43:33;;;;;;;3.13;2.20;;;;;;;7.72;80.98;98989.97;4137579;28;20441;-69
2022/07/16 03:45:33;;;;;;;6.00;2.33;;;;;;;7.72;81.71;98989.97;4137147;28;20034;-69
2022/07/16 03:47:34;;;;;;;2.80;1.90;;;;;;;7.73;81.79;98988.81;4135023;28;20204;-69
2022/07/16 03:49:34;;;;;;;4.65;2.13;;;;;;;7.70;81.81;98989.53;4135825;28;20391;-69
2022/07/16 03:51:35;;;;;;;6.45;2.47;;;;;;;7.67;82.67;98990.19;4134879;28;20038;-69
2022/07/16 03:53:37;;;;;;;2.22;2.00;;;;;;;7.67;83.07;98992.16;4136116;28;20139;-69
2022/07/16 03:55:37;;;;;;;5.20;2.70;;;;;;;7.65;83.15;98983.44;4133598;28;20129;-69
2022/07/16 03:57:38;;;;;;;4.13;2.47;;;;;;;7.70;82.67;98992.28;4134417;28;20445;-69
2022/07/16 03:59:38;;;;;;;3.38;1.98;;;;;;;7.73;82.07;98991.56;4134585;28;20078;-69
2022/07/16 04:01:39;;;;;;;4.55;2.28;;;;;;;7.78;81.15;98991.34;4136783;28;20060;-69
2022/07/16 04:03:39;;;;;;;6.03;2.05;;;;;;;7.82;81.76;98994.19;4135943;28;20072;-69
2022/07/16 04:05:40;;;;;;;4.13;2.20;;;;;;;7.85;81.41;98990.75;4135964;28;20449;-69
2022/07/16 04:07:40;;;;;;;6.53;2.40;;;;;;;7.89;80.92;98986.97;4136400;28;20076;-69
2022/07/16 04:09:40;;;;;;;3.97;2.55;;;;;;;7.95;81.38;98992.25;4136325;28;20576;-69
2022/07/16 04:11:41;;;;;;;2.80;2.33;;;;;;;8.02;80.68;98993.22;4134738;28;20043;-69
2022/07/16 04:13:41;;;;;;;5.38;2.25;;;;;;;8.05;81.85;98987.03;4128266;28;20161;-69
2022/07/16 04:15:42;;;;;;;4.15;2.30;;;;;;;8.15;81.13;98985.75;4125665;28;20050;-69
2022/07/16 04:17:42;;;;;;;3.55;2.40;;;;;;;8.26;80.39;98986.84;4133309;28;20056;-69
2022/07/16 04:19:43;;;;;;;5.43;2.55;;;;;;;8.32;80.25;98990.97;4134292;28;20041;-70
2022/07/16 04:21:43;;;;;;;6.78;2.20;;;;;;;8.38;80.02;98984.09;4134549;28;20035;-69
2022/07/16 04:23:43;;;;;;;4.60;2.50;;;;;;;8.39;80.07;98976.59;4136340;28;20046;-69
2022/07/16 04:25:44;;;;;;;4.18;2.25;;;;;;;8.44;79.25;98974.41;4134853;28;20398;-69
2022/07/16 04:27:45;;;;;;;4.65;2.40;;;;;;;8.51;79.50;98972.97;4135927;28;20046;-69
2022/07/16 04:29:45;;;;;;;3.22;2.15;;;;;;;8.56;78.94;98973.53;4132852;28;20050;-69
2022/07/16 04:31:45;;;;;;;5.10;2.30;;;;;;;8.59;80.04;98983.06;4136531;28;20076;-69
2022/07/16 04:33:46;;;;;;;4.05;2.50;;;;;;;8.61;80.60;98978.81;4134592;28;20065;-69
2022/07/16 04:35:48;;;;;;;4.88;2.67;;;;;;;8.62;80.92;98977.66;4134606;28;20089;-69
2022/07/16 04:37:49;;;;;;;3.40;2.08;;;;;;;8.67;79.88;98982.88;4135196;28;20149;-69
2022/07/16 04:39:50;;;;;;;3.20;2.08;;;;;;;8.77;79.37;98967.81;4134590;28;20046;-69
2022/07/16 04:41:50;;;;;;;3.13;2.17;;;;;;;8.85;79.61;98964.03;4135573;28;21169;-69
2022/07/16 04:43:50;;;;;;;3.78;1.98;;;;;;;9.00;79.81;98971.53;4135618;28;20624;-69
2022/07/16 04:45:51;;;;;;;3.85;2.08;;;;;;;9.14;79.17;98981.34;4133709;28;20088;-70
2022/07/16 04:47:51;;;;;;;4.78;3.22;;;;;;;9.30;78.30;98979.38;4132866;28;20050;-69
2022/07/16 04:49:52;;;;;;;3.95;2.80;;;;;;;9.43;79.27;98978.13;4134076;28;20482;-69
2022/07/16 04:51:52;;;;;;;4.40;2.50;;;;;;;9.49;79.46;98979.44;4136446;28;20042;-69
2022/07/16 04:53:53;;;;;;;5.70;2.88;;;;;;;9.53;79.32;98980.34;4135606;28;20041;-70
2022/07/16 04:55:53;;;;;;;3.83;2.42;;;;;;;9.58;79.01;98982.81;4126732;28;20499;-70
2022/07/16 04:57:54;;;;;;;2.97;1.75;;;;;;;9.62;79.48;98985.69;4133931;28;20406;-70
2022/07/16 04:59:54;;;;;;;2.30;1.90;;;;;;;9.70;79.08;98992.16;4137019;28;20042;-70
2022/07/16 05:02:56;;;;;;;7.80;3.70;;;;;;;9.81;78.30;98984.91;4137605;28;20119;-70
2022/07/16 05:04:15;;;;;;;3.08;1.70;;;;;;;9.95;78.05;98987.19;4136645;28;20052;-70
2022/07/16 05:06:15;;;;;;;2.60;1.80;;;;;;;10.08;76.10;98989.47;4136352;28;20030;-70
2022/07/16 05:08:16;;;;;;;2.58;1.77;;;;;;;10.19;75.76;98980.63;4136396;28;20584;-69
2022/07/16 05:10:16;;;;;;;4.78;2.15;;;;;;;10.33;75.74;98981.72;4136607;28;20351;-69
2022/07/16 05:12:17;;;;;;;6.25;2.05;;;;;;;10.50;74.76;98979.66;4136793;28;20060;-69
2022/07/16 05:14:17;;;;;;;7.05;1.98;;;;;;;10.61;76.91;98980.69;4055250;28;20053;-68
2022/07/16 05:16:17;;;;;;;4.07;2.20;;;;;;;10.69;78.26;98982.44;4146192;28;20038;-69
2022/07/16 05:18:18;;;;;;;3.60;1.83;;;;;;;10.75;78.07;98972.66;4136182;28;20038;-69
2022/07/16 05:20:18;;;;;;;5.72;2.03;;;;;;;10.82;77.32;98975.53;4136552;28;20060;-69
2022/07/16 05:22:18;;;;;;;6.10;2.15;;;;;;;10.94;77.45;98978.16;4136307;28;20363;-69
2022/07/16 05:24:19;;;;;;;3.70;1.90;;;;;;;11.09;76.97;98983.91;4135778;28;20314;-69
2022/07/16 05:26:19;;;;;;;3.10;2.00;;;;;;;11.26;75.81;98977.91;4137045;28;20026;-69
2022/07/16 05:28:19;;;;;;;5.80;2.50;;;;;;;11.50;75.87;98974.75;4134403;28;20121;-69
2022/07/16 05:30:20;;;;;;;4.80;2.38;;;;;;;11.70;75.80;98974.63;4135489;28;20096;-69
2022/07/16 05:32:20;;;;;;;2.72;1.92;;;;;;;11.98;74.50;98972.28;4129441;28;20489;-69
2022/07/16 05:34:20;;;;;;;2.47;1.80;;;;;;;12.16;74.11;98974.50;4134517;28;20058;-69
2022/07/16 05:36:21;;;;;;;3.10;1.70;;;;;;;12.29;74.12;98979.44;4137112;28;20713;-70
2022/07/16 05:38:22;;;;;;;4.40;1.65;;;;;;;12.45;73.33;98975.66;4135440;28;20050;-69
2022/07/16 05:40:22;;;;;;;3.20;1.58;;;;;;;12.56;73.94;98968.25;4136398;28;20100;-70
2022/07/16 05:42:22;;;;;;;3.47;1.90;;;;;;;12.68;72.90;98968.00;4137144;28;20540;-69
2022/07/16 05:44:23;;;;;;;6.03;1.92;;;;;;;12.81;72.39;98969.31;4137069;28;20509;-69
2022/07/16 05:46:23;;;;;;;2.88;1.80;;;;;;;12.97;70.54;98968.28;4136158;28;20049;-70
2022/07/16 05:48:24;;;;;;;3.20;1.50;;;;;;;13.04;70.09;98968.34;4135153;28;20053;-70
2022/07/16 05:50:24;;;;;;;3.05;1.83;;;;;;;13.16;70.15;98973.66;4135094;28;20104;-70
2022/07/16 05:52:25;;;;;;;1.85;1.40;;;;;;;13.28;70.08;98972.56;4136323;28;20461;-70
2022/07/16 05:54:25;;;;;;;3.92;1.85;;;;;;;13.39;69.47;98970.66;4135028;28;20057;-70
2022/07/16 05:56:26;;;;;;;5.10;1.70;;;;;;;13.44;70.11;98971.13;4136961;28;20069;-70
2022/07/16 05:58:26;;;;;;;3.47;1.40;;;;;;;13.51;69.81;98981.50;4134982;28;20049;-69
2022/07/16 06:00:27;;;;;;;5.00;1.50;;;;;;;13.54;69.28;98979.94;4135957;28;20049;-70
2022/07/16 06:02:27;;;;;;;3.83;1.40;;;;;;;13.60;68.78;98978.38;4137144;28;20409;-70
2022/07/16 06:04:27;;;;;;;4.00;1.40;;;;;;;13.66;67.90;98974.88;4135316;28;20153;-70
2022/07/16 06:06:28;;;;;;;2.50;1.63;;;;;;;13.77;67.53;98978.50;4135592;28;20259;-70
2022/07/16 06:08:28;;;;;;;2.83;1.50;;;;;;;13.88;66.60;98973.00;4134231;28;20038;-70
2022/07/16 06:10:29;;;;;;;4.43;1.60;;;;;;;13.98;67.15;98985.38;4135292;28;20465;-70
2022/07/16 06:12:29;;;;;;;2.33;1.70;;;;;;;14.04;66.55;98981.84;4136486;28;20065;-70
2022/07/16 06:14:29;;;;;;;3.28;1.85;;;;;;;14.16;65.97;98991.06;4135559;28;20470;-70
2022/07/16 06:16:30;;;;;;;3.63;2.20;;;;;;;14.27;64.96;98983.56;4135531;28;20053;-70
2022/07/16 06:18:30;;;;;;;2.67;2.10;;;;;;;14.49;64.11;98987.28;4134921;28;20046;-70
2022/07/16 06:20:31;;;;;;;5.80;1.73;;;;;;;14.58;64.40;98988.50;4135925;28;20096;-70
2022/07/16 06:22:31;;;;;;;4.18;1.90;;;;;;;14.70;63.76;98990.13;4137027;28;20046;-70
2022/07/16 06:24:31;;;;;;;2.38;2.10;;;;;;;14.82;64.01;98983.41;4136230;28;20124;-70
2022/07/16 06:26:32;;;;;;;5.65;1.92;;;;;;;14.88;64.10;98985.38;4135602;28;20053;-70
2022/07/16 06:28:32;;;;;;;3.05;1.90;;;;;;;14.94;63.64;98983.03;4134982;28;20319;-70
2022/07/16 06:30:33;;;;;;;3.47;1.88;;;;;;;15.03;62.60;98988.22;4135960;28;20053;-70
2022/07/16 06:32:33;;;;;;;4.35;1.92;;;;;;;15.14;62.28;98989.84;4134752;28;20096;-70
2022/07/16 06:34:33;;;;;;;2.72;1.90;;;;;;;15.24;61.38;98984.66;4136419;28;20306;-70
2022/07/16 06:36:34;;;;;;;3.45;2.13;;;;;;;15.40;61.62;98983.09;4136232;28;20056;-70
2022/07/16 06:38:34;;;;;;;3.85;1.90;;;;;;;15.44;61.48;98988.66;4134186;28;20059;-70
2022/07/16 06:40:35;;;;;;;5.22;2.40;;;;;;;15.51;61.43;98994.22;4136227;28;20058;-70
2022/07/16 06:42:35;;;;;;;6.95;1.90;;;;;;;15.54;60.97;98990.63;4136207;28;20046;-70
2022/07/16 06:44:35;;;;;;;6.80;2.17;;;;;;;15.60;61.99;98991.03;4136070;28;20351;-70
2022/07/16 06:46:36;;;;;;;4.43;1.95;;;;;;;15.64;61.27;98978.72;4134521;28;20046;-70
2022/07/16 06:48:37;;;;;;;4.47;2.50;;;;;;;15.70;61.06;98979.91;4133947;28;20054;-70
2022/07/16 06:50:40;;;;;;;3.30;1.90;;;;;;;15.77;61.39;98979.09;4135808;28;20042;-70
2022/07/16 06:52:41;;;;;;;5.70;2.13;;;;;;;15.86;61.06;98981.47;4135287;28;20542;-70
2022/07/16 06:54:41;;;;;;;5.20;2.22;;;;;;;15.92;61.17;98979.88;4135616;28;20054;-70
2022/07/16 06:56:42;;;;;;;5.75;2.00;;;;;;;16.01;60.09;98988.63;4135161;28;20054;-70
2022/07/16 06:58:42;;;;;;;5.03;1.92;;;;;;;16.03;60.42;98997.38;4135150;28;20062;-70
2022/07/16 07:00:43;;;;;;;5.63;1.98;;;;;;;16.11;59.57;98989.78;4135145;28;20108;-70
2022/07/16 07:02:43;;;;;;;3.25;1.85;;;;;;;16.22;57.96;98996.16;4134040;28;20042;-70
2022/07/16 07:04:43;;;;;;;4.32;1.90;;;;;;;16.25;57.74;98990.56;4135551;28;20197;-70
2022/07/16 07:06:44;;;;;;;2.45;1.85;;;;;;;16.29;57.70;98994.13;4135698;28;20395;-70
2022/07/16 07:08:44;;;;;;;3.90;1.67;;;;;;;16.32;57.53;98997.31;4134902;28;20141;-70
2022/07/16 07:10:44;;;;;;;3.75;1.92;;;;;;;16.35;57.18;98999.28;4136200;28;20561;-70
2022/07/16 07:12:46;;;;;;;2.90;2.10;;;;;;;16.39;56.75;98991.72;4134271;28;20064;-70
2022/07/16 07:14:46;;;;;;;4.80;1.58;;;;;;;16.36;56.74;99003.69;4135989;28;20046;-70
2022/07/16 07:16:46;;;;;;;2.65;1.67;;;;;;;16.38;55.89;99009.66;4133941;28;20054;-70
2022/07/16 07:18:47;;;;;;;5.88;1.88;;;;;;;16.33;56.19;99010.88;4135061;28;20394;-70
2022/07/16 07:20:47;;;;;;;2.33;1.70;;;;;;;16.37;55.63;99002.47;4134258;28;20050;-70
2022/07/16 07:22:48;;;;;;;3.28;1.63;;;;;;;16.40;55.44;99010.84;4136034;28;20042;-70
2022/07/16 07:24:49;;;;;;;3.88;1.73;;;;;;;16.43;55.96;99015.63;4134808;28;20529;-71
2022/07/16 07:26:50;;;;;;;3.33;1.70;;;;;;;16.51;55.49;99014.41;4136596;28;20764;-70
2022/07/16 07:28:50;;;;;;;4.25;1.90;;;;;;;16.46;55.35;99005.63;4135418;28;20547;-71
2022/07/16 07:30:51;;;;;;;1.67;1.55;;;;;;;16.53;55.18;99006.41;4134454;28;20072;-71
2022/07/16 07:32:52;;;;;;;6.07;1.67;;;;;;;16.60;54.98;99007.56;4135933;28;20073;-71
2022/07/16 07:34:52;;;;;;;2.95;1.80;;;;;;;16.68;54.43;99014.72;4135796;28;20037;-71
2022/07/16 07:36:53;;;;;;;2.58;1.92;;;;;;;16.74;54.74;99013.94;4136364;28;20081;-71
2022/07/16 07:38:54;;;;;;;2.60;1.60;;;;;;;16.81;54.92;99011.09;4133073;28;20050;-71
2022/07/16 07:40:55;;;;;;;3.40;1.70;;;;;;;16.73;55.04;99011.56;4134565;28;20084;-71
2022/07/16 07:42:55;;;;;;;4.97;2.00;;;;;;;16.84;55.54;99015.88;4135466;28;20084;-71
2022/07/16 07:44:56;;;;;;;2.30;1.77;;;;;;;16.91;54.56;99011.47;4135349;28;20120;-71
2022/07/16 07:46:56;;;;;;;20.67;2.78;;;;;;;16.96;53.18;99002.63;4135420;28;20697;-71
2022/07/16 07:48:57;;;;;;;2.00;1.60;;;;;;;17.03;53.90;99008.97;4135077;28;20050;-71
2022/07/16 07:50:57;;;;;;;3.58;1.98;;;;;;;17.22;52.91;98998.50;4135579;28;20125;-71
2022/07/16 07:52:57;;;;;;;4.72;1.85;;;;;;;17.20;51.93;99017.66;4135911;28;20454;-71
2022/07/16 07:54:58;;;;;;;7.20;1.92;;;;;;;17.26;51.81;99007.63;4135285;28;20082;-71
2022/07/16 07:56:58;;;;;;;1.98;1.58;;;;;;;17.43;52.26;99029.09;4137221;28;20779;-71
2022/07/16 07:58:59;;;;;;;5.30;1.73;;;;;;;17.53;51.63;99003.03;4137317;28;20100;-70
2022/07/16 08:00:59;;;;;;;3.20;1.60;;;;;;;17.64;51.62;99008.56;4137378;28;20061;-71
2022/07/16 08:03:00;;;;;;;3.35;1.48;;;;;;;17.83;50.51;99016.41;4136401;28;20060;-71
2022/07/16 08:05:00;;;;;;;2.95;1.38;;;;;;;17.96;49.75;99020.28;4137811;28;20475;-71
2022/07/16 08:07:01;;;;;;;2.28;1.40;;;;;;;17.83;49.51;99018.41;4137460;28;20041;-71
2022/07/16 08:09:02;;;;;;;5.10;1.70;;;;;;;17.64;49.63;99009.34;4137746;28;20079;-70
2022/07/16 08:11:02;;;;;;;2.38;1.60;;;;;;;17.79;50.22;99012.03;4136998;28;20316;-70
2022/07/16 08:13:02;;;;;;;3.70;2.22;;;;;;;17.82;50.31;99019.63;4138669;28;20406;-71
2022/07/16 08:15:04;;;;;;;3.42;1.65;;;;;;;17.86;49.64;99009.97;4138128;28;20854;-71
2022/07/16 08:17:04;;;;;;;4.75;1.58;;;;;;;18.04;50.25;99017.41;4138438;28;20386;-71
2022/07/16 08:19:05;;;;;;;1.90;1.35;;;;;;;18.09;49.32;99025.34;4137639;28;20053;-71
2022/07/16 08:21:06;;;;;;;2.53;1.50;;;;;;;18.00;50.04;99022.25;4138130;28;20379;-71
2022/07/16 08:23:06;;;;;;;3.97;2.00;;;;;;;17.93;49.94;99017.50;4137407;28;20073;-71
2022/07/16 08:27:26;;;;;;;3.67;1.60;;;;;;;17.65;50.57;99036.13;4137056;28;20096;-71
2022/07/16 08:29:27;;;;;;;2.65;1.80;;;;;;;17.57;50.29;99029.00;4135786;28;20595;-71
2022/07/16 08:31:27;;;;;;;2.25;1.40;;;;;;;17.53;50.28;99042.19;4133488;28;20581;-71
2022/07/16 08:33:27;;;;;;;2.65;1.80;;;;;;;17.31;50.97;99030.38;4139171;28;20402;-71
2022/07/16 08:35:28;;;;;;;6.53;1.80;;;;;;;17.35;50.83;99022.75;4137359;28;20042;-71
2022/07/16 08:37:37;;;;;;;3.50;1.95;;;;;;;17.18;51.04;99025.66;4136337;28;20049;-71
2022/07/16 08:39:45;;;;;;;2.75;1.70;;;;;;;17.26;51.47;99039.19;4136380;28;20041;-71
2022/07/16 08:41:46;;;;;;;3.67;1.65;;;;;;;17.26;51.29;99025.22;4137489;28;20056;-71
2022/07/16 08:43:46;;;;;;;2.00;1.50;;;;;;;17.35;50.89;99033.13;4136912;28;20397;-71
2022/07/16 08:45:47;;;;;;;4.28;1.60;;;;;;;17.35;50.96;99024.75;4138767;28;20058;-71
2022/07/16 08:47:50;;;;;;;4.35;1.77;;;;;;;17.46;50.95;99036.69;4136522;28;20494;-71
2022/07/16 08:49:52;;;;;;;7.35;1.90;;;;;;;17.46;50.47;99030.25;4135959;28;20156;-71
2022/07/16 08:51:58;;;;;;;2.20;1.55;;;;;;;17.56;49.85;99035.78;4138078;28;20080;-71
2022/07/16 08:54:18;;;;;;;2.70;1.73;;;;;;;17.65;49.94;99040.91;4137091;28;20084;-70
2022/07/16 08:56:18;;;;;;;3.60;1.75;;;;;;;17.60;49.88;99036.53;4137251;28;20061;-71
2022/07/16 08:58:19;;;;;;;3.25;1.58;;;;;;;17.68;49.59;99032.47;4137393;28;20033;-70
2022/07/16 09:00:21;;;;;;;5.28;1.83;;;;;;;17.59;50.21;99037.75;4137080;28;20041;-70
2022/07/16 09:02:22;;;;;;;;;;;;;;;17.58;50.17;99043.78;4138098;28;20041;-70
2022/07/16 09:04:22;;;;;;;4.97;1.87;;;;;;;17.81;50.04;99044.00;4135153;28;19928;-71
2022/07/16 09:06:23;;;;;;;3.63;2.53;;;;;;;17.80;49.71;99045.22;4137030;28;20270;-70
2022/07/16 09:08:23;;;;;;;3.38;1.80;;;;;;;17.84;49.61;99056.38;4136574;28;20347;-70
2022/07/16 09:10:34;;;;;;;2.60;1.85;;;;;;;17.85;50.65;99055.16;4135958;28;20076;-71
2022/07/16 09:12:36;;;;;;;2.60;1.65;;;;;;;18.09;50.10;99056.94;4136854;28;20038;-71
2022/07/16 09:14:37;;;;;;;1.92;1.40;;;;;;;18.18;50.01;99057.25;4137383;28;20053;-71
2022/07/16 09:16:40;;;;;;;4.22;2.00;;;;;;;18.13;49.34;99063.31;4138216;28;20054;-71
2022/07/16 09:18:40;;;;;;;3.15;1.80;;;;;;;18.15;49.70;99066.50;4135432;28;20049;-71
2022/07/16 09:20:54;;;;;;;3.40;1.98;;;;;;;18.25;49.50;99070.41;4136482;28;20485;-71
2022/07/16 09:22:55;;;;;;;3.28;1.95;;;;;;;18.43;50.09;99064.59;4136037;28;20046;-71
2022/07/16 09:24:55;;;;;;;4.53;1.95;;;;;;;18.44;49.38;99071.81;4137511;28;20402;-70
2022/07/16 09:27:22;;;;;;;3.58;1.70;;;;;;;18.41;48.80;99072.63;4136727;28;20067;-71
2022/07/16 09:29:22;;;;;;;2.33;1.60;;;;;;;18.43;49.90;99062.59;4137119;28;20045;-71
2022/07/16 09:31:41;;;;;;;4.40;2.20;;;;;;;18.49;49.45;99072.16;4135723;28;20052;-71
2022/07/16 09:33:42;;;;;;;2.65;1.75;;;;;;;18.58;49.17;99073.66;4137285;28;20452;-71
2022/07/16 09:35:43;;;;;;;2.95;1.98;;;;;;;18.66;49.52;99072.41;4135903;28;20121;-71
2022/07/16 09:37:52;;;;;;;3.60;2.20;;;;;;;18.47;49.72;99082.19;4137803;28;20470;-71